sensor_id;sensor_type;location;lat;lon;timestamp;P1;durP1;ratioP1;P2;durP2;ratioP2
59145;SDS011;44928;53.074;6.646;2023-01-26T00:00:58;23.00;;;11.07;;
59145;SDS011;44928;53.074;6.646;2023-01-26T00:03:24;24.92;;;10.70;;
59145;SDS011;44928;53.074;6.646;2023-01-26T00:05:50;23.75;;;11.15;;
59145;SDS011;44928;53.074;6.646;2023-01-26T00:08:16;23.92;;;10.48;;
59145;SDS011;44928;53.074;6.646;2023-01-26T00:10:42;23.60;;;10.98;;
59145;SDS011;44928;53.074;6.646;2023-01-26T00:13:15;23.25;;;11.00;;
59145;SDS011;44928;53.074;6.646;2023-01-26T00:15:43;22.58;;;10.00;;
59145;SDS011;44928;53.074;6.646;2023-01-26T00:18:09;21.15;;;10.07;;
59145;SDS011;44928;53.074;6.646;2023-01-26T00:20:35;19.75;;;9.02;;
59145;SDS011;44928;53.074;6.646;2023-01-26T00:23:01;21.67;;;9.85;;
59145;SDS011;44928;53.074;6.646;2023-01-26T00:25:27;25.02;;;10.73;;
59145;SDS011;44928;53.074;6.646;2023-01-26T00:27:53;19.85;;;9.00;;
59145;SDS011;44928;53.074;6.646;2023-01-26T00:30:18;22.50;;;10.25;;
59145;SDS011;44928;53.074;6.646;2023-01-26T00:32:45;24.65;;;10.65;;
59145;SDS011;44928;53.074;6.646;2023-01-26T00:35:11;23.92;;;10.98;;
59145;SDS011;44928;53.074;6.646;2023-01-26T00:37:39;23.25;;;10.85;;
59145;SDS011;44928;53.074;6.646;2023-01-26T00:40:05;24.80;;;10.85;;
59145;SDS011;44928;53.074;6.646;2023-01-26T00:42:32;21.55;;;9.75;;
59145;SDS011;44928;53.074;6.646;2023-01-26T00:44:57;24.10;;;10.18;;
59145;SDS011;44928;53.074;6.646;2023-01-26T00:47:23;27.25;;;12.10;;
59145;SDS011;44928;53.074;6.646;2023-01-26T00:49:49;21.98;;;10.45;;
59145;SDS011;44928;53.074;6.646;2023-01-26T00:52:15;24.27;;;11.02;;
59145;SDS011;44928;53.074;6.646;2023-01-26T00:54:40;23.88;;;10.10;;
59145;SDS011;44928;53.074;6.646;2023-01-26T00:57:06;19.92;;;9.02;;
59145;SDS011;44928;53.074;6.646;2023-01-26T00:59:32;21.33;;;9.98;;
59145;SDS011;44928;53.074;6.646;2023-01-26T01:01:58;22.80;;;10.57;;
59145;SDS011;44928;53.074;6.646;2023-01-26T01:04:26;20.83;;;9.52;;
59145;SDS011;44928;53.074;6.646;2023-01-26T01:06:54;21.70;;;10.27;;
59145;SDS011;44928;53.074;6.646;2023-01-26T01:09:20;21.75;;;9.38;;
59145;SDS011;44928;53.074;6.646;2023-01-26T01:11:46;19.15;;;8.00;;
59145;SDS011;44928;53.074;6.646;2023-01-26T01:14:12;23.13;;;9.82;;
59145;SDS011;44928;53.074;6.646;2023-01-26T01:16:39;21.65;;;9.90;;
59145;SDS011;44928;53.074;6.646;2023-01-26T01:19:05;21.65;;;10.25;;
59145;SDS011;44928;53.074;6.646;2023-01-26T01:21:32;22.42;;;9.88;;
59145;SDS011;44928;53.074;6.646;2023-01-26T01:23:58;23.20;;;9.95;;
59145;SDS011;44928;53.074;6.646;2023-01-26T01:26:27;23.20;;;10.30;;
59145;SDS011;44928;53.074;6.646;2023-01-26T01:28:53;19.58;;;9.40;;
59145;SDS011;44928;53.074;6.646;2023-01-26T01:31:20;23.05;;;9.73;;
59145;SDS011;44928;53.074;6.646;2023-01-26T01:33:46;21.88;;;9.60;;
59145;SDS011;44928;53.074;6.646;2023-01-26T01:36:13;22.88;;;9.20;;
59145;SDS011;44928;53.074;6.646;2023-01-26T01:38:40;20.60;;;9.40;;
59145;SDS011;44928;53.074;6.646;2023-01-26T01:41:07;23.05;;;9.55;;
59145;SDS011;44928;53.074;6.646;2023-01-26T01:43:34;22.63;;;9.40;;
59145;SDS011;44928;53.074;6.646;2023-01-26T01:46:00;22.13;;;8.98;;
59145;SDS011;44928;53.074;6.646;2023-01-26T01:51:30;22.42;;;9.55;;
59145;SDS011;44928;53.074;6.646;2023-01-26T01:54:02;22.20;;;9.05;;
59145;SDS011;44928;53.074;6.646;2023-01-26T01:56:34;21.85;;;9.00;;
59145;SDS011;44928;53.074;6.646;2023-01-26T01:59:02;19.42;;;8.95;;
59145;SDS011;44928;53.074;6.646;2023-01-26T02:01:30;22.10;;;8.90;;
59145;SDS011;44928;53.074;6.646;2023-01-26T02:03:58;22.13;;;10.18;;
59145;SDS011;44928;53.074;6.646;2023-01-26T02:09:14;22.58;;;9.60;;
59145;SDS011;44928;53.074;6.646;2023-01-26T02:12:01;22.33;;;9.55;;
59145;SDS011;44928;53.074;6.646;2023-01-26T02:14:31;23.23;;;10.18;;
59145;SDS011;44928;53.074;6.646;2023-01-26T02:16:57;21.10;;;8.75;;
59145;SDS011;44928;53.074;6.646;2023-01-26T02:19:28;22.70;;;9.75;;
59145;SDS011;44928;53.074;6.646;2023-01-26T02:22:19;22.17;;;8.70;;
59145;SDS011;44928;53.074;6.646;2023-01-26T02:25:03;17.75;;;8.23;;
59145;SDS011;44928;53.074;6.646;2023-01-26T02:27:51;21.27;;;8.85;;
59145;SDS011;44928;53.074;6.646;2023-01-26T02:30:17;22.52;;;8.88;;
59145;SDS011;44928;53.074;6.646;2023-01-26T02:32:43;21.40;;;8.88;;
59145;SDS011;44928;53.074;6.646;2023-01-26T02:35:08;25.38;;;9.70;;
59145;SDS011;44928;53.074;6.646;2023-01-26T02:37:34;22.08;;;10.32;;
59145;SDS011;44928;53.074;6.646;2023-01-26T02:40:07;21.48;;;9.57;;
59145;SDS011;44928;53.074;6.646;2023-01-26T02:42:49;22.33;;;8.95;;
59145;SDS011;44928;53.074;6.646;2023-01-26T02:45:18;23.33;;;9.10;;
59145;SDS011;44928;53.074;6.646;2023-01-26T02:47:45;21.05;;;9.10;;
59145;SDS011;44928;53.074;6.646;2023-01-26T02:50:12;21.30;;;9.45;;
59145;SDS011;44928;53.074;6.646;2023-01-26T02:52:38;20.38;;;8.63;;
59145;SDS011;44928;53.074;6.646;2023-01-26T02:55:04;21.58;;;9.80;;
59145;SDS011;44928;53.074;6.646;2023-01-26T02:57:59;21.60;;;9.00;;
59145;SDS011;44928;53.074;6.646;2023-01-26T03:00:30;22.85;;;8.52;;
59145;SDS011;44928;53.074;6.646;2023-01-26T03:03:01;21.95;;;9.38;;
59145;SDS011;44928;53.074;6.646;2023-01-26T03:05:37;20.88;;;9.52;;
59145;SDS011;44928;53.074;6.646;2023-01-26T03:08:03;21.52;;;9.30;;
59145;SDS011;44928;53.074;6.646;2023-01-26T03:10:30;23.60;;;9.60;;
59145;SDS011;44928;53.074;6.646;2023-01-26T03:12:56;20.98;;;8.85;;
59145;SDS011;44928;53.074;6.646;2023-01-26T03:15:28;22.88;;;9.68;;
59145;SDS011;44928;53.074;6.646;2023-01-26T03:18:15;23.80;;;10.40;;
59145;SDS011;44928;53.074;6.646;2023-01-26T03:23:56;18.33;;;8.00;;
59145;SDS011;44928;53.074;6.646;2023-01-26T03:26:40;19.00;;;8.50;;
59145;SDS011;44928;53.074;6.646;2023-01-26T03:29:25;22.58;;;8.93;;
59145;SDS011;44928;53.074;6.646;2023-01-26T03:31:51;20.33;;;8.15;;
59145;SDS011;44928;53.074;6.646;2023-01-26T03:34:17;23.65;;;9.70;;
59145;SDS011;44928;53.074;6.646;2023-01-26T03:36:44;19.52;;;8.77;;
59145;SDS011;44928;53.074;6.646;2023-01-26T03:39:11;21.05;;;9.00;;
59145;SDS011;44928;53.074;6.646;2023-01-26T03:41:57;22.20;;;8.60;;
59145;SDS011;44928;53.074;6.646;2023-01-26T03:44:41;18.23;;;8.35;;
59145;SDS011;44928;53.074;6.646;2023-01-26T03:47:26;17.42;;;7.68;;
59145;SDS011;44928;53.074;6.646;2023-01-26T03:50:10;18.85;;;8.00;;
59145;SDS011;44928;53.074;6.646;2023-01-26T03:52:55;17.65;;;8.23;;
59145;SDS011;44928;53.074;6.646;2023-01-26T03:55:39;19.33;;;7.72;;
59145;SDS011;44928;53.074;6.646;2023-01-26T03:58:24;19.60;;;7.85;;
59145;SDS011;44928;53.074;6.646;2023-01-26T04:00:55;17.27;;;7.97;;
59145;SDS011;44928;53.074;6.646;2023-01-26T04:03:21;18.38;;;7.18;;
59145;SDS011;44928;53.074;6.646;2023-01-26T04:06:05;17.75;;;8.13;;
59145;SDS011;44928;53.074;6.646;2023-01-26T04:08:50;18.17;;;7.60;;
59145;SDS011;44928;53.074;6.646;2023-01-26T04:11:15;17.52;;;7.43;;
59145;SDS011;44928;53.074;6.646;2023-01-26T04:13:41;18.98;;;8.88;;
59145;SDS011;44928;53.074;6.646;2023-01-26T04:16:25;16.95;;;7.43;;
59145;SDS011;44928;53.074;6.646;2023-01-26T04:19:09;17.55;;;7.82;;
59145;SDS011;44928;53.074;6.646;2023-01-26T04:21:54;20.48;;;8.32;;
59145;SDS011;44928;53.074;6.646;2023-01-26T04:24:19;18.60;;;8.30;;
59145;SDS011;44928;53.074;6.646;2023-01-26T04:26:46;19.10;;;7.93;;
59145;SDS011;44928;53.074;6.646;2023-01-26T04:29:13;20.50;;;9.27;;
59145;SDS011;44928;53.074;6.646;2023-01-26T04:31:40;19.00;;;8.63;;
59145;SDS011;44928;53.074;6.646;2023-01-26T04:34:11;20.42;;;9.13;;
59145;SDS011;44928;53.074;6.646;2023-01-26T04:36:40;18.13;;;8.23;;
59145;SDS011;44928;53.074;6.646;2023-01-26T04:39:06;21.40;;;8.63;;
59145;SDS011;44928;53.074;6.646;2023-01-26T04:41:32;21.48;;;8.57;;
59145;SDS011;44928;53.074;6.646;2023-01-26T04:43:58;20.73;;;8.45;;
59145;SDS011;44928;53.074;6.646;2023-01-26T04:46:24;18.35;;;8.20;;
59145;SDS011;44928;53.074;6.646;2023-01-26T04:48:50;20.73;;;9.27;;
59145;SDS011;44928;53.074;6.646;2023-01-26T04:51:17;21.27;;;9.15;;
59145;SDS011;44928;53.074;6.646;2023-01-26T04:53:45;20.17;;;8.98;;
59145;SDS011;44928;53.074;6.646;2023-01-26T04:56:16;22.35;;;9.65;;
59145;SDS011;44928;53.074;6.646;2023-01-26T04:58:43;20.23;;;8.88;;
59145;SDS011;44928;53.074;6.646;2023-01-26T05:01:09;19.13;;;9.00;;
59145;SDS011;44928;53.074;6.646;2023-01-26T05:03:35;20.05;;;8.70;;
59145;SDS011;44928;53.074;6.646;2023-01-26T05:06:00;20.42;;;8.82;;
59145;SDS011;44928;53.074;6.646;2023-01-26T05:08:26;19.98;;;9.32;;
59145;SDS011;44928;53.074;6.646;2023-01-26T05:10:52;18.08;;;7.72;;
59145;SDS011;44928;53.074;6.646;2023-01-26T05:13:18;18.88;;;8.95;;
59145;SDS011;44928;53.074;6.646;2023-01-26T05:15:43;18.30;;;8.02;;
59145;SDS011;44928;53.074;6.646;2023-01-26T05:18:10;22.10;;;8.57;;
59145;SDS011;44928;53.074;6.646;2023-01-26T05:20:36;18.48;;;8.40;;
59145;SDS011;44928;53.074;6.646;2023-01-26T05:23:02;18.27;;;8.43;;
59145;SDS011;44928;53.074;6.646;2023-01-26T05:25:27;20.42;;;9.05;;
59145;SDS011;44928;53.074;6.646;2023-01-26T05:27:53;18.13;;;9.07;;
59145;SDS011;44928;53.074;6.646;2023-01-26T05:30:19;20.98;;;9.18;;
59145;SDS011;44928;53.074;6.646;2023-01-26T05:32:45;19.95;;;8.45;;
59145;SDS011;44928;53.074;6.646;2023-01-26T05:35:11;29.92;;;9.68;;
59145;SDS011;44928;53.074;6.646;2023-01-26T05:37:36;20.15;;;8.23;;
59145;SDS011;44928;53.074;6.646;2023-01-26T05:40:02;21.02;;;9.30;;
59145;SDS011;44928;53.074;6.646;2023-01-26T05:42:28;20.27;;;8.60;;
59145;SDS011;44928;53.074;6.646;2023-01-26T05:44:54;22.48;;;10.07;;
59145;SDS011;44928;53.074;6.646;2023-01-26T05:47:20;22.45;;;8.70;;
59145;SDS011;44928;53.074;6.646;2023-01-26T05:49:46;24.50;;;9.35;;
59145;SDS011;44928;53.074;6.646;2023-01-26T05:52:13;23.25;;;10.20;;
59145;SDS011;44928;53.074;6.646;2023-01-26T05:54:41;27.88;;;10.30;;
59145;SDS011;44928;53.074;6.646;2023-01-26T05:57:07;25.77;;;10.23;;
59145;SDS011;44928;53.074;6.646;2023-01-26T05:59:34;24.67;;;9.60;;
59145;SDS011;44928;53.074;6.646;2023-01-26T06:01:59;23.15;;;10.02;;
59145;SDS011;44928;53.074;6.646;2023-01-26T06:04:26;24.30;;;10.55;;
59145;SDS011;44928;53.074;6.646;2023-01-26T06:06:55;26.58;;;10.90;;
59145;SDS011;44928;53.074;6.646;2023-01-26T06:09:22;23.23;;;9.82;;
59145;SDS011;44928;53.074;6.646;2023-01-26T06:11:48;34.35;;;11.13;;
59145;SDS011;44928;53.074;6.646;2023-01-26T06:14:14;24.85;;;11.10;;
59145;SDS011;44928;53.074;6.646;2023-01-26T06:16:40;24.60;;;9.90;;
59145;SDS011;44928;53.074;6.646;2023-01-26T06:19:07;23.70;;;9.55;;
59145;SDS011;44928;53.074;6.646;2023-01-26T06:21:34;30.90;;;11.13;;
59145;SDS011;44928;53.074;6.646;2023-01-26T06:24:01;28.65;;;11.05;;
59145;SDS011;44928;53.074;6.646;2023-01-26T06:26:27;26.75;;;10.40;;
59145;SDS011;44928;53.074;6.646;2023-01-26T06:28:53;27.58;;;9.88;;
59145;SDS011;44928;53.074;6.646;2023-01-26T06:31:19;26.25;;;10.10;;
59145;SDS011;44928;53.074;6.646;2023-01-26T06:33:48;22.92;;;10.07;;
59145;SDS011;44928;53.074;6.646;2023-01-26T06:36:15;24.40;;;9.80;;
59145;SDS011;44928;53.074;6.646;2023-01-26T06:38:44;24.63;;;10.07;;
59145;SDS011;44928;53.074;6.646;2023-01-26T06:41:11;22.00;;;9.88;;
59145;SDS011;44928;53.074;6.646;2023-01-26T06:43:37;24.42;;;10.00;;
59145;SDS011;44928;53.074;6.646;2023-01-26T06:46:03;24.30;;;9.70;;
59145;SDS011;44928;53.074;6.646;2023-01-26T06:48:30;23.63;;;8.88;;
59145;SDS011;44928;53.074;6.646;2023-01-26T06:53:46;24.45;;;9.07;;
59145;SDS011;44928;53.074;6.646;2023-01-26T06:56:16;29.50;;;11.20;;
59145;SDS011;44928;53.074;6.646;2023-01-26T06:58:42;21.38;;;9.57;;
59145;SDS011;44928;53.074;6.646;2023-01-26T07:01:09;25.88;;;10.13;;
59145;SDS011;44928;53.074;6.646;2023-01-26T07:03:46;26.90;;;9.45;;
59145;SDS011;44928;53.074;6.646;2023-01-26T07:06:13;19.98;;;8.50;;
59145;SDS011;44928;53.074;6.646;2023-01-26T07:08:39;21.92;;;8.32;;
59145;SDS011;44928;53.074;6.646;2023-01-26T07:11:05;24.85;;;9.02;;
59145;SDS011;44928;53.074;6.646;2023-01-26T07:13:31;28.50;;;10.80;;
59145;SDS011;44928;53.074;6.646;2023-01-26T07:16:00;25.70;;;9.65;;
59145;SDS011;44928;53.074;6.646;2023-01-26T07:18:28;23.35;;;10.27;;
59145;SDS011;44928;53.074;6.646;2023-01-26T07:20:58;30.25;;;9.95;;
59145;SDS011;44928;53.074;6.646;2023-01-26T07:23:28;24.10;;;9.90;;
59145;SDS011;44928;53.074;6.646;2023-01-26T07:25:54;34.72;;;10.65;;
59145;SDS011;44928;53.074;6.646;2023-01-26T07:28:20;27.70;;;10.05;;
59145;SDS011;44928;53.074;6.646;2023-01-26T07:30:46;34.40;;;11.00;;
59145;SDS011;44928;53.074;6.646;2023-01-26T07:33:13;27.40;;;10.55;;
59145;SDS011;44928;53.074;6.646;2023-01-26T07:35:39;32.70;;;10.68;;
59145;SDS011;44928;53.074;6.646;2023-01-26T07:38:05;30.10;;;10.52;;
59145;SDS011;44928;53.074;6.646;2023-01-26T07:40:31;35.00;;;10.57;;
59145;SDS011;44928;53.074;6.646;2023-01-26T07:42:59;35.28;;;11.05;;
59145;SDS011;44928;53.074;6.646;2023-01-26T07:45:25;31.90;;;11.07;;
59145;SDS011;44928;53.074;6.646;2023-01-26T07:47:55;34.00;;;11.63;;
59145;SDS011;44928;53.074;6.646;2023-01-26T07:50:21;28.85;;;10.88;;
59145;SDS011;44928;53.074;6.646;2023-01-26T07:52:47;35.35;;;11.88;;
59145;SDS011;44928;53.074;6.646;2023-01-26T07:55:13;32.53;;;10.68;;
59145;SDS011;44928;53.074;6.646;2023-01-26T07:57:39;28.27;;;10.60;;
59145;SDS011;44928;53.074;6.646;2023-01-26T08:00:05;31.73;;;11.07;;
59145;SDS011;44928;53.074;6.646;2023-01-26T08:02:32;24.77;;;9.85;;
59145;SDS011;44928;53.074;6.646;2023-01-26T08:04:57;21.00;;;8.90;;
59145;SDS011;44928;53.074;6.646;2023-01-26T08:07:24;28.80;;;9.90;;
59145;SDS011;44928;53.074;6.646;2023-01-26T08:09:50;23.02;;;8.93;;
59145;SDS011;44928;53.074;6.646;2023-01-26T08:12:16;22.15;;;8.38;;
59145;SDS011;44928;53.074;6.646;2023-01-26T08:14:42;22.65;;;8.25;;
59145;SDS011;44928;53.074;6.646;2023-01-26T08:17:08;21.83;;;8.52;;
59145;SDS011;44928;53.074;6.646;2023-01-26T08:19:33;18.17;;;7.93;;
59145;SDS011;44928;53.074;6.646;2023-01-26T08:21:59;18.65;;;7.18;;
59145;SDS011;44928;53.074;6.646;2023-01-26T08:24:25;25.17;;;9.07;;
59145;SDS011;44928;53.074;6.646;2023-01-26T08:26:52;24.02;;;9.40;;
59145;SDS011;44928;53.074;6.646;2023-01-26T08:29:18;19.83;;;8.45;;
59145;SDS011;44928;53.074;6.646;2023-01-26T08:31:45;19.73;;;7.78;;
59145;SDS011;44928;53.074;6.646;2023-01-26T08:34:11;20.20;;;8.15;;
59145;SDS011;44928;53.074;6.646;2023-01-26T08:36:37;20.15;;;8.05;;
59145;SDS011;44928;53.074;6.646;2023-01-26T08:39:03;23.52;;;8.57;;
59145;SDS011;44928;53.074;6.646;2023-01-26T08:41:29;22.73;;;8.60;;
59145;SDS011;44928;53.074;6.646;2023-01-26T08:43:57;24.15;;;9.38;;
59145;SDS011;44928;53.074;6.646;2023-01-26T08:46:23;23.45;;;9.27;;
59145;SDS011;44928;53.074;6.646;2023-01-26T08:48:50;23.77;;;8.48;;
59145;SDS011;44928;53.074;6.646;2023-01-26T08:51:16;23.17;;;8.73;;
59145;SDS011;44928;53.074;6.646;2023-01-26T08:53:42;23.42;;;8.55;;
59145;SDS011;44928;53.074;6.646;2023-01-26T08:56:09;21.27;;;8.20;;
59145;SDS011;44928;53.074;6.646;2023-01-26T08:58:36;22.00;;;8.63;;
59145;SDS011;44928;53.074;6.646;2023-01-26T09:01:03;21.85;;;7.97;;
59145;SDS011;44928;53.074;6.646;2023-01-26T09:03:30;22.52;;;7.60;;
59145;SDS011;44928;53.074;6.646;2023-01-26T09:05:57;22.15;;;7.80;;
59145;SDS011;44928;53.074;6.646;2023-01-26T09:08:24;21.85;;;7.18;;
59145;SDS011;44928;53.074;6.646;2023-01-26T09:10:50;22.58;;;7.18;;
59145;SDS011;44928;53.074;6.646;2023-01-26T09:13:16;21.13;;;7.90;;
59145;SDS011;44928;53.074;6.646;2023-01-26T09:15:42;17.45;;;6.72;;
59145;SDS011;44928;53.074;6.646;2023-01-26T09:18:08;20.35;;;6.63;;
59145;SDS011;44928;53.074;6.646;2023-01-26T09:20:36;18.38;;;5.57;;
59145;SDS011;44928;53.074;6.646;2023-01-26T09:23:02;25.30;;;7.07;;
59145;SDS011;44928;53.074;6.646;2023-01-26T09:25:28;26.13;;;6.50;;
59145;SDS011;44928;53.074;6.646;2023-01-26T09:27:54;27.77;;;6.43;;
59145;SDS011;44928;53.074;6.646;2023-01-26T09:30:20;33.03;;;6.50;;
59145;SDS011;44928;53.074;6.646;2023-01-26T09:32:49;32.35;;;6.22;;
59145;SDS011;44928;53.074;6.646;2023-01-26T09:35:15;30.13;;;6.20;;
59145;SDS011;44928;53.074;6.646;2023-01-26T09:37:44;30.77;;;6.15;;
59145;SDS011;44928;53.074;6.646;2023-01-26T09:40:13;26.98;;;5.40;;
59145;SDS011;44928;53.074;6.646;2023-01-26T09:43:03;32.10;;;6.38;;
59145;SDS011;44928;53.074;6.646;2023-01-26T09:48:30;30.48;;;6.20;;
59145;SDS011;44928;53.074;6.646;2023-01-26T09:51:26;24.17;;;4.50;;
59145;SDS011;44928;53.074;6.646;2023-01-26T09:53:58;23.48;;;4.85;;
59145;SDS011;44928;53.074;6.646;2023-01-26T09:56:29;26.17;;;3.78;;
59145;SDS011;44928;53.074;6.646;2023-01-26T10:04:54;27.80;;;4.15;;
59145;SDS011;44928;53.074;6.646;2023-01-26T10:07:25;31.55;;;4.85;;
59145;SDS011;44928;53.074;6.646;2023-01-26T10:09:51;29.48;;;3.88;;
59145;SDS011;44928;53.074;6.646;2023-01-26T10:12:20;31.15;;;3.95;;
59145;SDS011;44928;53.074;6.646;2023-01-26T10:15:14;28.90;;;3.85;;
59145;SDS011;44928;53.074;6.646;2023-01-26T10:17:55;29.15;;;3.83;;
59145;SDS011;44928;53.074;6.646;2023-01-26T10:23:04;22.67;;;4.13;;
59145;SDS011;44928;53.074;6.646;2023-01-26T10:25:49;33.70;;;4.65;;
59145;SDS011;44928;53.074;6.646;2023-01-26T10:28:23;26.88;;;3.67;;
59145;SDS011;44928;53.074;6.646;2023-01-26T10:30:54;26.10;;;3.85;;
59145;SDS011;44928;53.074;6.646;2023-01-26T10:33:25;30.90;;;4.47;;
59145;SDS011;44928;53.074;6.646;2023-01-26T10:35:56;29.02;;;3.40;;
59145;SDS011;44928;53.074;6.646;2023-01-26T10:41:00;24.80;;;4.18;;
59145;SDS011;44928;53.074;6.646;2023-01-26T10:43:27;34.53;;;4.43;;
59145;SDS011;44928;53.074;6.646;2023-01-26T10:45:55;27.98;;;3.83;;
59145;SDS011;44928;53.074;6.646;2023-01-26T10:48:22;28.25;;;4.40;;
59145;SDS011;44928;53.074;6.646;2023-01-26T10:50:50;37.80;;;5.47;;
59145;SDS011;44928;53.074;6.646;2023-01-26T10:53:21;26.48;;;5.00;;
59145;SDS011;44928;53.074;6.646;2023-01-26T10:58:36;24.48;;;4.60;;
59145;SDS011;44928;53.074;6.646;2023-01-26T11:01:05;30.17;;;8.85;;
59145;SDS011;44928;53.074;6.646;2023-01-26T11:03:36;30.65;;;7.53;;
59145;SDS011;44928;53.074;6.646;2023-01-26T11:06:07;26.88;;;5.88;;
59145;SDS011;44928;53.074;6.646;2023-01-26T11:08:41;27.42;;;4.30;;
59145;SDS011;44928;53.074;6.646;2023-01-26T11:11:42;25.90;;;5.57;;
59145;SDS011;44928;53.074;6.646;2023-01-26T11:14:14;26.23;;;3.28;;
59145;SDS011;44928;53.074;6.646;2023-01-26T11:16:49;22.77;;;3.42;;
59145;SDS011;44928;53.074;6.646;2023-01-26T11:21:54;22.90;;;3.22;;
59145;SDS011;44928;53.074;6.646;2023-01-26T11:24:33;20.25;;;2.90;;
59145;SDS011;44928;53.074;6.646;2023-01-26T11:33:03;23.73;;;3.23;;
59145;SDS011;44928;53.074;6.646;2023-01-26T11:35:58;26.88;;;4.20;;
59145;SDS011;44928;53.074;6.646;2023-01-26T11:52:48;24.10;;;3.08;;
59145;SDS011;44928;53.074;6.646;2023-01-26T11:55:57;21.83;;;3.17;;
59145;SDS011;44928;53.074;6.646;2023-01-26T11:58:52;27.80;;;3.28;;
59145;SDS011;44928;53.074;6.646;2023-01-26T12:04:28;19.33;;;2.30;;
59145;SDS011;44928;53.074;6.646;2023-01-26T12:07:04;14.50;;;2.20;;
59145;SDS011;44928;53.074;6.646;2023-01-26T12:09:40;12.30;;;1.88;;
59145;SDS011;44928;53.074;6.646;2023-01-26T12:14:45;13.68;;;2.28;;
59145;SDS011;44928;53.074;6.646;2023-01-26T12:20:22;12.02;;;1.95;;
59145;SDS011;44928;53.074;6.646;2023-01-26T12:23:17;13.13;;;1.92;;
59145;SDS011;44928;53.074;6.646;2023-01-26T12:25:50;14.20;;;2.03;;
59145;SDS011;44928;53.074;6.646;2023-01-26T12:28:25;11.40;;;2.10;;
59145;SDS011;44928;53.074;6.646;2023-01-26T12:33:42;13.57;;;1.92;;
59145;SDS011;44928;53.074;6.646;2023-01-26T12:46:36;14.93;;;2.80;;
59145;SDS011;44928;53.074;6.646;2023-01-26T12:49:19;12.38;;;1.88;;
59145;SDS011;44928;53.074;6.646;2023-01-26T12:51:53;19.38;;;2.53;;
59145;SDS011;44928;53.074;6.646;2023-01-26T12:54:34;14.68;;;2.35;;
59145;SDS011;44928;53.074;6.646;2023-01-26T12:57:10;13.40;;;2.05;;
59145;SDS011;44928;53.074;6.646;2023-01-26T12:59:39;16.02;;;2.75;;
59145;SDS011;44928;53.074;6.646;2023-01-26T13:04:40;15.93;;;2.45;;
59145;SDS011;44928;53.074;6.646;2023-01-26T13:15:47;17.10;;;2.22;;
59145;SDS011;44928;53.074;6.646;2023-01-26T13:18:48;13.18;;;2.22;;
59145;SDS011;44928;53.074;6.646;2023-01-26T13:26:52;11.85;;;2.45;;
59145;SDS011;44928;53.074;6.646;2023-01-26T13:34:24;12.43;;;2.50;;
59145;SDS011;44928;53.074;6.646;2023-01-26T13:36:54;12.60;;;2.10;;
59145;SDS011;44928;53.074;6.646;2023-01-26T13:39:34;15.75;;;2.13;;
59145;SDS011;44928;53.074;6.646;2023-01-26T13:42:01;10.95;;;1.52;;
59145;SDS011;44928;53.074;6.646;2023-01-26T13:44:40;10.55;;;1.45;;
59145;SDS011;44928;53.074;6.646;2023-01-26T13:47:19;13.52;;;2.42;;
59145;SDS011;44928;53.074;6.646;2023-01-26T13:49:49;12.07;;;1.67;;
59145;SDS011;44928;53.074;6.646;2023-01-26T13:52:20;8.55;;;1.33;;
59145;SDS011;44928;53.074;6.646;2023-01-26T13:54:48;11.43;;;1.67;;
59145;SDS011;44928;53.074;6.646;2023-01-26T13:57:20;9.65;;;1.75;;
59145;SDS011;44928;53.074;6.646;2023-01-26T13:59:52;13.13;;;1.75;;
59145;SDS011;44928;53.074;6.646;2023-01-26T14:04:56;11.00;;;1.35;;
59145;SDS011;44928;53.074;6.646;2023-01-26T14:07:23;10.35;;;1.55;;
59145;SDS011;44928;53.074;6.646;2023-01-26T14:09:52;12.53;;;1.90;;
59145;SDS011;44928;53.074;6.646;2023-01-26T14:12:21;13.98;;;1.63;;
59145;SDS011;44928;53.074;6.646;2023-01-26T14:14:53;11.75;;;1.85;;
59145;SDS011;44928;53.074;6.646;2023-01-26T14:19:53;11.50;;;2.13;;
59145;SDS011;44928;53.074;6.646;2023-01-26T14:22:19;9.65;;;1.70;;
59145;SDS011;44928;53.074;6.646;2023-01-26T14:24:49;12.52;;;1.65;;
59145;SDS011;44928;53.074;6.646;2023-01-26T14:29:51;10.70;;;1.90;;
59145;SDS011;44928;53.074;6.646;2023-01-26T14:32:16;13.88;;;2.25;;
59145;SDS011;44928;53.074;6.646;2023-01-26T14:34:52;10.52;;;2.03;;
59145;SDS011;44928;53.074;6.646;2023-01-26T14:37:20;15.25;;;1.77;;
59145;SDS011;44928;53.074;6.646;2023-01-26T14:39:46;12.13;;;1.65;;
59145;SDS011;44928;53.074;6.646;2023-01-26T14:42:16;13.32;;;1.80;;
59145;SDS011;44928;53.074;6.646;2023-01-26T14:44:43;11.50;;;1.73;;
59145;SDS011;44928;53.074;6.646;2023-01-26T14:47:17;16.92;;;2.47;;
59145;SDS011;44928;53.074;6.646;2023-01-26T14:52:52;16.00;;;2.00;;
59145;SDS011;44928;53.074;6.646;2023-01-26T14:55:25;11.00;;;2.65;;
59145;SDS011;44928;53.074;6.646;2023-01-26T14:57:53;12.25;;;1.95;;
59145;SDS011;44928;53.074;6.646;2023-01-26T15:02:55;16.30;;;2.00;;
59145;SDS011;44928;53.074;6.646;2023-01-26T15:05:31;13.45;;;2.13;;
59145;SDS011;44928;53.074;6.646;2023-01-26T15:08:02;12.07;;;2.17;;
59145;SDS011;44928;53.074;6.646;2023-01-26T15:13:01;15.57;;;1.75;;
59145;SDS011;44928;53.074;6.646;2023-01-26T15:15:38;11.32;;;1.88;;
59145;SDS011;44928;53.074;6.646;2023-01-26T15:20:38;14.40;;;1.90;;
59145;SDS011;44928;53.074;6.646;2023-01-26T15:23:41;17.38;;;2.70;;
59145;SDS011;44928;53.074;6.646;2023-01-26T15:26:04;9.48;;;2.08;;
59145;SDS011;44928;53.074;6.646;2023-01-26T15:28:32;14.88;;;3.97;;
59145;SDS011;44928;53.074;6.646;2023-01-26T15:30:58;13.75;;;2.00;;
59145;SDS011;44928;53.074;6.646;2023-01-26T15:33:44;16.55;;;2.63;;
59145;SDS011;44928;53.074;6.646;2023-01-26T15:36:25;17.77;;;3.00;;
59145;SDS011;44928;53.074;6.646;2023-01-26T15:38:56;16.83;;;2.70;;
59145;SDS011;44928;53.074;6.646;2023-01-26T15:41:28;15.27;;;2.47;;
59145;SDS011;44928;53.074;6.646;2023-01-26T15:43:55;11.93;;;1.85;;
59145;SDS011;44928;53.074;6.646;2023-01-26T15:46:21;17.98;;;2.88;;
59145;SDS011;44928;53.074;6.646;2023-01-26T15:48:47;16.33;;;2.78;;
59145;SDS011;44928;53.074;6.646;2023-01-26T15:51:13;15.73;;;2.40;;
59145;SDS011;44928;53.074;6.646;2023-01-26T15:53:39;13.93;;;1.98;;
59145;SDS011;44928;53.074;6.646;2023-01-26T15:56:05;12.95;;;2.80;;
59145;SDS011;44928;53.074;6.646;2023-01-26T15:58:38;16.00;;;2.67;;
59145;SDS011;44928;53.074;6.646;2023-01-26T16:01:05;13.60;;;2.88;;
59145;SDS011;44928;53.074;6.646;2023-01-26T16:03:34;11.95;;;2.63;;
59145;SDS011;44928;53.074;6.646;2023-01-26T16:06:00;16.85;;;2.55;;
59145;SDS011;44928;53.074;6.646;2023-01-26T16:08:25;18.13;;;2.50;;
59145;SDS011;44928;53.074;6.646;2023-01-26T16:10:51;16.25;;;3.03;;
59145;SDS011;44928;53.074;6.646;2023-01-26T16:13:20;15.07;;;2.20;;
59145;SDS011;44928;53.074;6.646;2023-01-26T16:15:50;17.40;;;2.75;;
59145;SDS011;44928;53.074;6.646;2023-01-26T16:18:17;12.88;;;2.72;;
59145;SDS011;44928;53.074;6.646;2023-01-26T16:20:45;20.83;;;3.10;;
59145;SDS011;44928;53.074;6.646;2023-01-26T16:25:43;15.88;;;2.45;;
59145;SDS011;44928;53.074;6.646;2023-01-26T16:28:09;15.57;;;2.75;;
59145;SDS011;44928;53.074;6.646;2023-01-26T16:30:34;15.68;;;2.47;;
59145;SDS011;44928;53.074;6.646;2023-01-26T16:33:00;21.17;;;3.00;;
59145;SDS011;44928;53.074;6.646;2023-01-26T16:35:26;16.08;;;2.53;;
59145;SDS011;44928;53.074;6.646;2023-01-26T16:37:53;17.52;;;3.35;;
59145;SDS011;44928;53.074;6.646;2023-01-26T16:40:19;16.45;;;3.03;;
59145;SDS011;44928;53.074;6.646;2023-01-26T16:42:46;15.70;;;2.95;;
59145;SDS011;44928;53.074;6.646;2023-01-26T16:45:15;15.18;;;3.17;;